Time;durP1;ratioP1;P1;durP2;ratioP2;P2;SDS_P1;SDS_P2;PMS_P1;PMS_P2;Temp;Humidity;BMP_temperature;BMP_pressure;BME280_temperature;BME280_humidity;BME280_pressure;Samples;Min_cycle;Max_cycle;Signal;HPM_P1;HPM_P2
2021/06/09 00:02:07;;;;;;;12.18;10.93;;;18.20;78.20;;;;;;5001374;28;20026;-67
2021/06/09 00:04:33;;;;;;;12.98;11.60;;;18.20;78.00;;;;;;4997895;28;20049;-67
2021/06/09 00:06:59;;;;;;;12.85;11.60;;;18.30;78.00;;;;;;4996937;28;20516;-67
2021/06/09 00:09:25;;;;;;;12.68;11.45;;;18.30;78.00;;;;;;4998775;28;20039;-67
2021/06/09 00:11:50;;;;;;;14.27;11.93;;;18.30;78.10;;;;;;4995560;28;20034;-66
2021/06/09 00:14:16;;;;;;;13.05;11.75;;;18.30;78.00;;;;;;5004766;28;20038;-67
2021/06/09 00:16:44;;;;;;;15.00;11.52;;;18.30;77.90;;;;;;4998450;28;20040;-67
2021/06/09 00:19:11;;;;;;;12.70;11.27;;;18.20;77.90;;;;;;4996704;28;20530;-67
2021/06/09 00:21:37;;;;;;;13.20;11.90;;;18.20;78.00;;;;;;4995869;28;20026;-67
2021/06/09 00:24:04;;;;;;;13.93;11.68;;;18.20;77.90;;;;;;4996884;28;20030;-67
2021/06/09 00:26:29;;;;;;;12.63;11.13;;;18.20;78.00;;;;;;4995797;28;20807;-67
2021/06/09 00:28:55;;;;;;;13.85;12.23;;;18.20;78.00;;;;;;4997807;28;20050;-67
2021/06/09 00:31:21;;;;;;;13.15;11.75;;;18.10;78.00;;;;;;4999406;28;20030;-67
2021/06/09 00:33:47;;;;;;;12.05;10.85;;;18.10;78.00;;;;;;4996267;28;20034;-67
2021/06/09 00:36:13;;;;;;;12.70;11.38;;;18.10;78.00;;;;;;4998112;28;20777;-67
2021/06/09 00:38:39;;;;;;;12.20;11.00;;;18.00;78.10;;;;;;4998601;28;20045;-67
2021/06/09 00:41:08;;;;;;;12.82;11.35;;;18.00;78.20;;;;;;5000127;28;20045;-67
2021/06/09 00:43:34;;;;;;;13.65;11.55;;;18.00;78.60;;;;;;4998274;28;20026;-67
2021/06/09 00:46:08;;;;;;;14.45;12.13;;;18.00;78.40;;;;;;4998204;28;20069;-67
2021/06/09 00:48:37;;;;;;;12.90;11.65;;;17.90;78.70;;;;;;4997127;28;20045;-68
2021/06/09 00:51:06;;;;;;;12.85;11.57;;;17.90;78.30;;;;;;4999113;28;20034;-67
2021/06/09 00:53:34;;;;;;;13.25;11.85;;;17.90;78.40;;;;;;4999624;28;20084;-67
2021/06/09 00:56:21;;;;;;;13.38;11.50;;;17.80;78.40;;;;;;4997634;28;20473;-67
2021/06/09 00:58:49;;;;;;;12.05;10.60;;;17.80;78.70;;;;;;4998470;28;20042;-67
2021/06/09 01:01:17;;;;;;;12.40;11.20;;;17.80;78.50;;;;;;4995444;28;20041;-67
2021/06/09 01:03:44;;;;;;;12.30;11.05;;;17.80;78.60;;;;;;4995377;28;20124;-67
2021/06/09 01:06:09;;;;;;;12.82;11.52;;;17.80;78.60;;;;;;4997536;28;20041;-67
2021/06/09 01:08:37;;;;;;;12.15;10.95;;;17.80;78.50;;;;;;4996448;28;20034;-67
2021/06/09 01:11:04;;;;;;;12.43;11.13;;;17.70;78.60;;;;;;4993208;28;20042;-67
2021/06/09 01:13:31;;;;;;;11.90;10.80;;;17.70;78.50;;;;;;4995938;28;20513;-67
2021/06/09 01:15:58;;;;;;;12.50;10.88;;;17.70;78.40;;;;;;4998318;28;20137;-67
2021/06/09 01:18:24;;;;;;;11.07;10.05;;;17.70;78.40;;;;;;4998979;28;20035;-67
2021/06/09 01:20:50;;;;;;;12.05;10.82;;;17.70;78.40;;;;;;5002411;28;20109;-67
2021/06/09 01:23:16;;;;;;;12.32;11.02;;;17.70;78.30;;;;;;4998635;28;20464;-67
2021/06/09 01:25:43;;;;;;;13.57;11.57;;;17.70;78.10;;;;;;5000036;28;20049;-67
2021/06/09 01:28:09;;;;;;;13.88;10.95;;;17.60;77.90;;;;;;4993643;28;20133;-67
2021/06/09 01:30:36;;;;;;;12.75;11.50;;;17.60;77.80;;;;;;4996738;28;20142;-67
2021/06/09 01:33:06;;;;;;;13.23;10.63;;;17.60;77.80;;;;;;4995886;28;20114;-67
2021/06/09 01:35:32;;;;;;;13.00;11.63;;;17.50;77.70;;;;;;4998045;28;20031;-67
2021/06/09 01:37:57;;;;;;;13.93;12.00;;;17.50;77.70;;;;;;4997865;28;20052;-67
2021/06/09 01:40:25;;;;;;;17.38;11.52;;;17.40;77.70;;;;;;4996515;28;20128;-67
2021/06/09 01:42:52;;;;;;;12.70;10.88;;;17.40;77.80;;;;;;4997168;28;20033;-67
2021/06/09 01:45:23;;;;;;;12.75;11.35;;;17.30;77.90;;;;;;4997177;28;20050;-66
2021/06/09 01:47:51;;;;;;;13.70;12.13;;;17.30;78.20;;;;;;4997857;28;20038;-67
2021/06/09 01:50:17;;;;;;;13.10;11.73;;;17.20;78.00;;;;;;4996597;28;20048;-67
2021/06/09 01:52:45;;;;;;;13.13;11.82;;;17.20;78.00;;;;;;4999014;28;20042;-67
2021/06/09 01:55:12;;;;;;;13.35;12.02;;;17.10;78.20;;;;;;4995420;28;20030;-67
2021/06/09 01:57:38;;;;;;;14.45;12.10;;;17.10;78.30;;;;;;4997135;28;20100;-67
2021/06/09 02:00:13;;;;;;;15.13;12.38;;;17.10;78.40;;;;;;4996449;28;20529;-67
2021/06/09 02:02:39;;;;;;;13.40;11.82;;;17.00;78.70;;;;;;4996971;28;20026;-67
2021/06/09 02:05:07;;;;;;;14.75;12.63;;;17.00;78.80;;;;;;4995438;28;20030;-67
2021/06/09 02:07:37;;;;;;;13.70;12.25;;;17.00;79.10;;;;;;4997914;28;20038;-66
2021/06/09 02:10:24;;;;;;;14.15;12.38;;;16.90;79.60;;;;;;5001139;28;20091;-66
2021/06/09 02:12:52;;;;;;;14.10;12.60;;;16.90;80.40;;;;;;4997772;28;20713;-67
2021/06/09 02:15:20;;;;;;;13.50;11.43;;;16.80;79.70;;;;;;4995692;28;20466;-67
2021/06/09 02:17:56;;;;;;;12.98;11.30;;;16.80;79.80;;;;;;4996838;28;20037;-67
2021/06/09 02:20:24;;;;;;;14.68;12.27;;;16.80;79.90;;;;;;4996811;28;20034;-68
2021/06/09 02:22:50;;;;;;;13.63;12.13;;;16.80;80.00;;;;;;4996489;28;20409;-67
2021/06/09 02:25:16;;;;;;;13.82;12.35;;;16.80;80.00;;;;;;4995991;28;20026;-67
2021/06/09 02:27:42;;;;;;;16.73;12.50;;;16.80;80.00;;;;;;4996219;28;20042;-67
2021/06/09 02:30:09;;;;;;;14.02;12.63;;;16.70;80.00;;;;;;4997570;28;20522;-67
2021/06/09 02:32:35;;;;;;;15.40;12.95;;;16.70;80.00;;;;;;4994936;28;20034;-67
2021/06/09 02:35:02;;;;;;;13.88;12.48;;;16.70;80.10;;;;;;4995423;28;20058;-67
2021/06/09 02:37:27;;;;;;;13.70;12.32;;;16.70;80.10;;;;;;4995658;28;20041;-67
2021/06/09 02:39:53;;;;;;;14.45;12.32;;;16.70;80.20;;;;;;5002577;28;20038;-67
2021/06/09 02:42:20;;;;;;;15.05;12.13;;;16.70;80.20;;;;;;4996358;28;20026;-67
2021/06/09 02:44:47;;;;;;;13.85;12.40;;;16.70;80.20;;;;;;4995264;28;20034;-67
2021/06/09 02:47:15;;;;;;;13.95;12.55;;;16.70;80.10;;;;;;4994300;28;20047;-67
2021/06/09 02:49:42;;;;;;;14.25;12.75;;;16.70;80.10;;;;;;4995355;28;20034;-67
2021/06/09 02:52:33;;;;;;;13.52;12.10;;;16.70;80.20;;;;;;4997055;28;20108;-67
2021/06/09 02:55:13;;;;;;;12.40;11.10;;;16.70;80.50;;;;;;4993626;28;20109;-67
2021/06/09 02:58:03;;;;;;;14.15;12.45;;;16.70;80.30;;;;;;4995769;28;20409;-67
2021/06/09 03:00:35;;;;;;;13.13;11.73;;;16.70;80.40;;;;;;4992907;28;20114;-67
2021/06/09 03:03:11;;;;;;;14.15;12.63;;;16.70;80.30;;;;;;4994819;28;20095;-67
2021/06/09 03:05:41;;;;;;;14.65;12.40;;;16.80;80.10;;;;;;4993860;28;20030;-67
2021/06/09 03:08:19;;;;;;;12.75;11.48;;;16.70;80.10;;;;;;4995001;28;20065;-67
2021/06/09 03:10:51;;;;;;;13.98;12.40;;;16.70;80.30;;;;;;4999764;28;20038;-67
2021/06/09 03:16:27;;;;;;;12.68;11.38;;;16.70;80.50;;;;;;4994568;28;20152;-67
2021/06/09 03:18:57;;;;;;;12.60;11.30;;;16.70;80.10;;;;;;4996552;28;20047;-67
2021/06/09 03:21:37;;;;;;;12.43;11.10;;;16.70;80.00;;;;;;4996283;28;20048;-67
2021/06/09 03:24:20;;;;;;;13.60;12.15;;;16.70;80.30;;;;;;4995870;28;20037;-67
2021/06/09 03:26:51;;;;;;;13.27;11.98;;;16.70;80.10;;;;;;4992782;28;20045;-67
2021/06/09 03:29:39;;;;;;;13.20;11.85;;;16.70;80.10;;;;;;4995488;28;20143;-67
2021/06/09 03:32:09;;;;;;;13.50;11.68;;;16.80;80.50;;;;;;4995304;28;20039;-67
2021/06/09 03:34:46;;;;;;;13.00;11.70;;;16.70;80.00;;;;;;4992607;28;20022;-67
2021/06/09 03:37:17;;;;;;;16.90;13.10;;;16.70;80.30;;;;;;4990926;28;20085;-67
2021/06/09 03:39:46;;;;;;;14.02;11.38;;;16.70;80.20;;;;;;4995056;28;20042;-67
2021/06/09 03:42:17;;;;;;;13.57;12.23;;;16.70;80.10;;;;;;4992219;28;21816;-67
2021/06/09 03:44:48;;;;;;;14.40;12.07;;;16.70;80.20;;;;;;4995305;28;20066;-67
2021/06/09 03:47:16;;;;;;;16.63;11.85;;;16.60;80.30;;;;;;4993352;28;20038;-67
2021/06/09 03:49:44;;;;;;;13.32;12.02;;;16.60;80.50;;;;;;4991364;28;20034;-67
2021/06/09 03:52:11;;;;;;;14.27;11.90;;;16.60;80.80;;;;;;5006650;28;20030;-67
2021/06/09 03:54:41;;;;;;;14.40;12.90;;;16.70;80.70;;;;;;4994898;28;20088;-67
2021/06/09 03:57:07;;;;;;;15.27;12.43;;;16.70;80.70;;;;;;4991875;28;20048;-67
2021/06/09 03:59:33;;;;;;;15.63;13.20;;;16.70;80.60;;;;;;4994107;28;20544;-67
2021/06/09 04:02:00;;;;;;;14.38;12.88;;;16.60;80.70;;;;;;4992753;28;20026;-67
2021/06/09 04:04:29;;;;;;;13.07;11.63;;;16.70;80.80;;;;;;4990853;28;20069;-67
2021/06/09 04:06:57;;;;;;;15.73;12.88;;;16.60;80.90;;;;;;4993651;28;20034;-67
2021/06/09 04:09:24;;;;;;;14.70;13.25;;;16.70;81.00;;;;;;4994689;28;20100;-67
2021/06/09 04:11:58;;;;;;;15.45;13.85;;;16.70;81.00;;;;;;4991742;28;20061;-67
2021/06/09 04:14:31;;;;;;;14.70;12.55;;;16.70;81.00;;;;;;4995043;28;20153;-67
2021/06/09 04:16:58;;;;;;;16.55;12.55;;;16.70;81.00;;;;;;4993516;28;20421;-67
2021/06/09 04:19:26;;;;;;;14.10;12.65;;;16.80;80.80;;;;;;5000858;28;20129;-67
2021/06/09 04:21:52;;;;;;;16.95;13.27;;;16.70;80.80;;;;;;4994649;28;20034;-67
2021/06/09 04:24:18;;;;;;;16.00;14.15;;;16.80;80.80;;;;;;4992891;28;20520;-67
2021/06/09 04:26:45;;;;;;;13.90;12.50;;;16.80;80.70;;;;;;4994959;28;20033;-67
2021/06/09 04:29:12;;;;;;;14.15;12.75;;;16.80;80.60;;;;;;4992567;28;20042;-67
2021/06/09 04:31:38;;;;;;;14.75;13.15;;;16.90;80.60;;;;;;4991407;28;20084;-67
2021/06/09 04:34:04;;;;;;;13.77;12.38;;;16.90;80.80;;;;;;4985425;28;20539;-67
2021/06/09 04:36:30;;;;;;;13.85;12.45;;;16.90;80.80;;;;;;4993727;28;20084;-67
2021/06/09 04:38:55;;;;;;;15.20;12.93;;;16.90;80.80;;;;;;5000708;28;20072;-67
2021/06/09 04:41:22;;;;;;;14.45;13.02;;;16.90;80.80;;;;;;4999752;28;20042;-67
2021/06/09 04:43:48;;;;;;;16.65;13.52;;;17.00;80.80;;;;;;4999345;28;20026;-67
2021/06/09 04:46:22;;;;;;;15.13;13.40;;;16.90;80.70;;;;;;5017655;28;20026;-67
2021/06/09 04:48:58;;;;;;;18.67;15.77;;;17.00;81.00;;;;;;4999591;28;20030;-67
2021/06/09 04:51:35;;;;;;;16.98;14.18;;;17.00;80.90;;;;;;5000431;28;20041;-67
2021/06/09 04:54:06;;;;;;;17.70;14.73;;;17.10;81.00;;;;;;5000165;28;20027;-67
2021/06/09 04:56:37;;;;;;;14.88;13.27;;;17.10;80.80;;;;;;4999509;28;20417;-67
2021/06/09 04:59:06;;;;;;;14.55;13.05;;;17.10;80.90;;;;;;4997454;28;20073;-67
2021/06/09 05:01:39;;;;;;;15.77;13.70;;;17.10;80.90;;;;;;5006297;28;20054;-67
2021/06/09 05:04:05;;;;;;;16.27;14.25;;;17.20;80.90;;;;;;4997369;28;20045;-67
2021/06/09 05:06:30;;;;;;;15.68;13.98;;;17.20;80.80;;;;;;5001044;28;20031;-67
2021/06/09 05:08:57;;;;;;;16.15;13.57;;;17.20;80.80;;;;;;5000005;28;20419;-67
2021/06/09 05:11:52;;;;;;;15.00;13.32;;;17.30;81.00;;;;;;4997600;28;20554;-68
2021/06/09 05:14:28;;;;;;;15.80;13.10;;;17.30;81.40;;;;;;5006782;28;20060;-67
2021/06/09 05:16:56;;;;;;;15.60;13.63;;;17.30;81.00;;;;;;4998745;28;20052;-68
2021/06/09 05:19:28;;;;;;;17.58;14.93;;;17.40;81.10;;;;;;4997249;28;20463;-67
2021/06/09 05:22:01;;;;;;;15.68;13.95;;;17.40;81.00;;;;;;4998263;28;20402;-67
2021/06/09 05:24:31;;;;;;;18.38;14.93;;;17.40;81.00;;;;;;4999472;28;20034;-68
2021/06/09 05:26:57;;;;;;;19.65;14.80;;;17.50;81.00;;;;;;4997702;28;20061;-68
2021/06/09 05:29:25;;;;;;;18.02;14.75;;;17.50;80.80;;;;;;5000337;28;20127;-67
2021/06/09 05:31:53;;;;;;;15.95;14.25;;;17.50;80.80;;;;;;5001098;28;20652;-67
2021/06/09 05:34:20;;;;;;;16.15;14.30;;;17.60;80.80;;;;;;5005170;28;20034;-67
2021/06/09 05:36:47;;;;;;;16.48;14.55;;;17.70;80.70;;;;;;4997836;28;20056;-67
2021/06/09 05:39:17;;;;;;;19.50;14.55;;;17.70;80.60;;;;;;5000006;28;20046;-67
2021/06/09 05:41:44;;;;;;;20.73;14.23;;;17.70;80.60;;;;;;4999604;28;20037;-68
2021/06/09 05:44:17;;;;;;;26.55;15.40;;;17.70;80.50;;;;;;4998011;28;20124;-67
2021/06/09 05:46:46;;;;;;;22.33;14.63;;;17.80;80.50;;;;;;4997866;28;20046;-67
2021/06/09 05:49:23;;;;;;;21.05;14.90;;;17.80;80.50;;;;;;4999646;28;20037;-67
2021/06/09 05:51:53;;;;;;;19.98;14.55;;;17.80;80.40;;;;;;4998594;28;20064;-68
2021/06/09 05:54:20;;;;;;;20.80;14.70;;;17.90;80.20;;;;;;4999739;28;20108;-67
2021/06/09 05:56:46;;;;;;;20.17;14.68;;;17.80;80.10;;;;;;4999327;28;20509;-67
2021/06/09 05:59:13;;;;;;;19.70;14.80;;;17.80;80.50;;;;;;5000570;28;20034;-67
2021/06/09 06:01:40;;;;;;;15.77;13.70;;;17.90;80.60;;;;;;4999914;28;20587;-67
2021/06/09 06:04:07;;;;;;;18.30;14.25;;;17.90;80.50;;;;;;5000237;28;20081;-68
2021/06/09 06:06:33;;;;;;;17.05;13.73;;;17.90;80.30;;;;;;4998772;28;20037;-67
2021/06/09 06:08:59;;;;;;;15.63;14.02;;;17.90;80.60;;;;;;4999234;28;20034;-67
2021/06/09 06:11:25;;;;;;;16.85;14.27;;;18.00;80.70;;;;;;5006303;28;20081;-67
2021/06/09 06:13:51;;;;;;;15.63;13.88;;;18.00;80.60;;;;;;4998411;28;20077;-67
2021/06/09 06:16:19;;;;;;;16.30;13.75;;;18.10;80.50;;;;;;4998516;28;20505;-68
2021/06/09 06:18:46;;;;;;;14.82;13.25;;;18.10;80.50;;;;;;4999160;28;20048;-67
2021/06/09 06:21:14;;;;;;;14.55;13.02;;;18.20;80.40;;;;;;4997959;28;20109;-68
2021/06/09 06:23:40;;;;;;;13.88;12.48;;;18.20;80.40;;;;;;4998755;28;20528;-68
2021/06/09 06:26:07;;;;;;;14.85;13.30;;;18.30;80.40;;;;;;4996508;28;20112;-67
2021/06/09 06:28:33;;;;;;;15.18;13.45;;;18.40;80.30;;;;;;5003874;28;20125;-67
2021/06/09 06:31:01;;;;;;;14.38;12.88;;;18.40;79.70;;;;;;4994952;28;20034;-68
2021/06/09 06:33:28;;;;;;;14.57;13.10;;;18.60;79.60;;;;;;5005592;28;20026;-68
2021/06/09 06:35:58;;;;;;;13.55;12.23;;;18.60;79.30;;;;;;5003414;28;20038;-68
2021/06/09 06:38:24;;;;;;;14.38;12.88;;;18.60;79.20;;;;;;4998233;28;20137;-68
2021/06/09 06:40:50;;;;;;;13.95;12.32;;;18.80;79.30;;;;;;4999534;28;20034;-68
2021/06/09 06:43:17;;;;;;;12.75;11.50;;;18.80;78.70;;;;;;4997055;28;20401;-68
2021/06/09 06:45:43;;;;;;;14.60;12.32;;;18.90;78.40;;;;;;4996601;28;20104;-67
2021/06/09 06:48:09;;;;;;;12.38;11.18;;;19.00;77.80;;;;;;4997321;28;20085;-68
2021/06/09 06:50:37;;;;;;;13.15;11.73;;;19.00;77.90;;;;;;4997865;28;20026;-67
2021/06/09 06:53:06;;;;;;;13.05;11.75;;;19.10;77.70;;;;;;4997534;28;20046;-68
2021/06/09 06:55:33;;;;;;;13.98;12.07;;;19.20;76.60;;;;;;4997489;28;20048;-68
2021/06/09 06:57:58;;;;;;;12.48;11.27;;;19.20;76.80;;;;;;4998473;28;20026;-68
2021/06/09 07:00:25;;;;;;;13.32;11.93;;;19.30;76.50;;;;;;4997164;28;20026;-68
2021/06/09 07:02:56;;;;;;;12.55;11.25;;;19.30;76.10;;;;;;4990677;28;20365;-67
2021/06/09 07:05:25;;;;;;;12.77;11.48;;;19.50;75.60;;;;;;4998485;28;20565;-67
2021/06/09 07:07:51;;;;;;;13.38;11.93;;;19.50;75.70;;;;;;4997078;28;20409;-67
2021/06/09 07:10:18;;;;;;;12.40;11.20;;;19.60;75.60;;;;;;4998319;28;20045;-68
2021/06/09 07:12:45;;;;;;;12.50;11.27;;;19.70;75.40;;;;;;4995634;28;20046;-67
2021/06/09 07:15:19;;;;;;;12.38;11.13;;;19.80;75.10;;;;;;4997554;28;20031;-67
2021/06/09 07:17:51;;;;;;;11.77;10.63;;;19.80;74.90;;;;;;4997339;28;20039;-68
2021/06/09 07:20:20;;;;;;;14.00;11.25;;;19.90;74.60;;;;;;4998734;28;20452;-68
2021/06/09 07:22:46;;;;;;;11.93;10.75;;;19.90;74.50;;;;;;4997352;28;20083;-68
2021/06/09 07:25:13;;;;;;;11.88;10.68;;;20.00;74.90;;;;;;4997345;28;20026;-68
2021/06/09 07:27:41;;;;;;;12.38;11.18;;;20.00;74.60;;;;;;4997538;28;20031;-68
2021/06/09 07:30:09;;;;;;;12.57;11.27;;;20.10;74.60;;;;;;4996847;28;20125;-67
2021/06/09 07:32:36;;;;;;;12.57;11.25;;;20.10;74.00;;;;;;4996181;28;20038;-67
2021/06/09 07:35:04;;;;;;;12.18;10.68;;;20.20;73.70;;;;;;4996705;28;20038;-67
2021/06/09 07:37:33;;;;;;;11.90;10.70;;;20.30;74.20;;;;;;5004066;28;20045;-68
2021/06/09 07:40:01;;;;;;;12.32;11.02;;;20.30;74.30;;;;;;4996331;28;20120;-68
2021/06/09 07:42:28;;;;;;;11.48;10.38;;;20.40;74.10;;;;;;4997387;28;20034;-68
2021/06/09 07:45:08;;;;;;;11.43;10.40;;;20.50;74.20;;;;;;4998091;28;20384;-68
2021/06/09 07:47:35;;;;;;;13.52;11.15;;;20.60;73.70;;;;;;4996188;28;20041;-68
2021/06/09 07:50:06;;;;;;;12.25;10.98;;;20.70;73.90;;;;;;4996975;28;20042;-68
2021/06/09 07:52:35;;;;;;;11.50;10.30;;;20.80;73.70;;;;;;4994836;28;20122;-67
2021/06/09 07:55:03;;;;;;;11.52;10.32;;;20.90;73.30;;;;;;4996381;28;21794;-67
2021/06/09 07:57:32;;;;;;;12.40;11.10;;;21.00;73.30;;;;;;4994859;28;20030;-67
2021/06/09 08:00:05;;;;;;;12.48;10.88;;;21.00;72.80;;;;;;4996663;28;20557;-68
2021/06/09 08:02:34;;;;;;;12.02;10.73;;;21.20;73.60;;;;;;4993942;28;20026;-68
2021/06/09 08:05:03;;;;;;;11.52;10.40;;;21.30;72.50;;;;;;4996751;28;20080;-67
2021/06/09 08:07:28;;;;;;;11.60;10.40;;;21.40;72.00;;;;;;4994554;28;20133;-68
2021/06/09 08:09:54;;;;;;;11.25;10.15;;;21.40;71.90;;;;;;4997717;28;20125;-68
2021/06/09 08:12:20;;;;;;;12.30;11.10;;;21.50;71.60;;;;;;5003213;28;20536;-68
2021/06/09 08:14:46;;;;;;;11.77;10.57;;;21.60;71.50;;;;;;4999350;28;20034;-68
2021/06/09 08:17:12;;;;;;;12.98;11.25;;;21.70;71.40;;;;;;5000103;28;20042;-68
2021/06/09 08:19:38;;;;;;;11.75;10.65;;;21.80;70.90;;;;;;5000877;28;20036;-68
2021/06/09 08:22:04;;;;;;;11.90;10.73;;;21.90;70.90;;;;;;5001007;28;20026;-67
2021/06/09 08:24:29;;;;;;;12.25;11.05;;;21.90;70.90;;;;;;4998846;28;20069;-68
2021/06/09 08:27:02;;;;;;;11.60;10.43;;;22.10;70.90;;;;;;5002619;28;20034;-68
2021/06/09 08:29:28;;;;;;;12.98;11.63;;;22.10;70.90;;;;;;5000752;28;20026;-68
2021/06/09 08:31:54;;;;;;;11.68;10.38;;;22.30;70.50;;;;;;4999443;28;20145;-68
2021/06/09 08:34:19;;;;;;;11.48;10.35;;;22.40;70.10;;;;;;4998642;28;20030;-68
2021/06/09 08:36:45;;;;;;;11.90;10.75;;;22.40;69.40;;;;;;5000757;28;20034;-68
2021/06/09 08:39:11;;;;;;;11.77;10.68;;;22.50;68.80;;;;;;5004924;28;20061;-68
2021/06/09 08:41:43;;;;;;;10.82;9.73;;;22.60;68.60;;;;;;4999205;28;20030;-68
2021/06/09 08:44:09;;;;;;;11.32;10.20;;;22.70;68.80;;;;;;5001102;28;20058;-68
2021/06/09 08:46:36;;;;;;;12.13;10.93;;;22.80;68.80;;;;;;5002313;28;20081;-68
2021/06/09 08:49:03;;;;;;;11.57;10.38;;;22.90;68.30;;;;;;4999229;28;20062;-68
2021/06/09 08:51:34;;;;;;;11.93;10.43;;;23.00;68.40;;;;;;5001297;28;20040;-68
2021/06/09 08:54:02;;;;;;;12.60;11.40;;;23.10;68.20;;;;;;4998384;28;20029;-68
2021/06/09 08:56:28;;;;;;;12.10;10.85;;;23.20;66.70;;;;;;4998626;28;20061;-68
2021/06/09 08:58:54;;;;;;;12.43;11.23;;;23.30;66.70;;;;;;4999199;28;20520;-68
2021/06/09 09:01:20;;;;;;;11.80;10.55;;;23.30;65.70;;;;;;5004806;28;20497;-68
2021/06/09 09:03:49;;;;;;;11.45;10.30;;;23.40;65.30;;;;;;5000189;28;20440;-68
2021/06/09 09:06:15;;;;;;;11.73;10.52;;;23.40;65.90;;;;;;4998315;28;20058;-68
2021/06/09 09:08:42;;;;;;;13.68;12.38;;;23.40;66.40;;;;;;4999298;28;21202;-68
2021/06/09 09:11:08;;;;;;;12.15;11.05;;;23.40;65.50;;;;;;4999475;28;20038;-68
2021/06/09 09:13:34;;;;;;;12.48;11.13;;;23.40;65.50;;;;;;5002034;28;20045;-68
2021/06/09 09:16:00;;;;;;;12.07;10.98;;;23.50;65.90;;;;;;4999238;28;20065;-68
2021/06/09 09:18:43;;;;;;;11.10;9.93;;;23.50;66.20;;;;;;4996702;28;20057;-67
2021/06/09 09:21:31;;;;;;;10.85;9.77;;;23.60;64.90;;;;;;5014786;28;20144;-68
2021/06/09 09:23:56;;;;;;;11.68;10.38;;;23.70;64.20;;;;;;4998545;28;20041;-66
2021/06/09 09:26:26;;;;;;;12.60;9.73;;;23.80;64.60;;;;;;4999822;28;20030;-66
2021/06/09 09:29:11;;;;;;;10.48;9.20;;;23.90;64.50;;;;;;4997009;28;20033;-66
2021/06/09 09:32:00;;;;;;;11.40;10.40;;;24.10;63.90;;;;;;4999758;28;20109;-66
2021/06/09 09:34:44;;;;;;;11.18;10.10;;;24.10;62.90;;;;;;4999231;28;20079;-66
2021/06/09 09:37:19;;;;;;;10.27;9.13;;;24.30;63.30;;;;;;5000633;28;20430;-66
2021/06/09 09:39:48;;;;;;;10.82;9.82;;;24.40;63.80;;;;;;5000109;28;20061;-66
2021/06/09 09:42:18;;;;;;;11.30;10.20;;;24.50;63.60;;;;;;4999193;28;20273;-66
2021/06/09 09:44:44;;;;;;;13.52;10.45;;;24.60;62.70;;;;;;4995526;28;20031;-66
2021/06/09 09:47:23;;;;;;;12.32;10.32;;;24.70;62.70;;;;;;4999662;28;20042;-66
2021/06/09 09:49:50;;;;;;;11.23;10.18;;;24.80;61.30;;;;;;4998629;28;20032;-66
2021/06/09 09:52:17;;;;;;;11.13;10.02;;;24.90;61.80;;;;;;5005229;28;20029;-66
2021/06/09 09:54:44;;;;;;;11.85;10.70;;;25.00;61.70;;;;;;4997546;28;20030;-66
2021/06/09 09:57:13;;;;;;;11.30;10.23;;;25.10;61.00;;;;;;4999236;28;20050;-66
2021/06/09 09:59:40;;;;;;;13.90;12.57;;;25.20;60.80;;;;;;4999463;28;20029;-66
2021/06/09 10:02:15;;;;;;;13.02;11.75;;;25.20;59.60;;;;;;4999255;28;20084;-66
2021/06/09 10:04:41;;;;;;;13.60;12.20;;;25.20;59.50;;;;;;4997018;28;20034;-66
2021/06/09 10:07:10;;;;;;;13.98;12.57;;;25.30;60.00;;;;;;4999286;28;20108;-66
2021/06/09 10:09:44;;;;;;;13.38;12.13;;;25.30;59.50;;;;;;4999214;28;20030;-66
2021/06/09 10:12:13;;;;;;;14.85;13.35;;;25.30;59.80;;;;;;4995664;28;20054;-66
2021/06/09 10:14:47;;;;;;;13.35;11.95;;;25.30;59.90;;;;;;4997796;28;20045;-66
2021/06/09 10:17:17;;;;;;;13.63;12.00;;;25.30;59.50;;;;;;4999836;28;20037;-66
2021/06/09 10:19:53;;;;;;;13.18;11.40;;;25.30;59.80;;;;;;4999122;28;20073;-66
2021/06/09 10:22:25;;;;;;;14.73;12.48;;;25.40;60.10;;;;;;4998984;28;20133;-66
2021/06/09 10:24:57;;;;;;;16.00;12.68;;;25.50;60.10;;;;;;4999332;28;20105;-66
2021/06/09 10:27:51;;;;;;;12.38;11.27;;;25.60;60.20;;;;;;4999293;28;20032;-66
2021/06/09 10:30:17;;;;;;;12.50;10.77;;;25.70;58.70;;;;;;4999626;28;20063;-67
2021/06/09 10:32:48;;;;;;;13.15;11.90;;;25.90;59.40;;;;;;4998242;28;20038;-66
2021/06/09 10:35:16;;;;;;;12.23;10.93;;;26.00;57.70;;;;;;4998347;28;20030;-66
2021/06/09 10:37:45;;;;;;;12.73;11.48;;;26.00;57.80;;;;;;4999003;28;20042;-66
2021/06/09 10:40:14;;;;;;;14.18;12.73;;;26.10;58.00;;;;;;4999120;28;20026;-66
2021/06/09 10:42:40;;;;;;;14.57;13.07;;;26.00;57.50;;;;;;4999616;28;20104;-66
2021/06/09 10:45:06;;;;;;;13.40;12.10;;;26.00;57.10;;;;;;4999744;28;20493;-66
2021/06/09 10:47:34;;;;;;;11.90;10.70;;;25.90;57.20;;;;;;4999835;28;20445;-66
2021/06/09 10:50:06;;;;;;;11.88;10.73;;;25.80;57.90;;;;;;4996653;28;20034;-66
2021/06/09 10:52:32;;;;;;;14.60;13.10;;;25.80;58.00;;;;;;4998337;28;20505;-66
2021/06/09 10:54:59;;;;;;;13.23;11.82;;;25.70;57.60;;;;;;4998828;28;20405;-66
2021/06/09 10:57:26;;;;;;;13.48;12.18;;;25.60;58.10;;;;;;4999172;28;20034;-66
2021/06/09 10:59:52;;;;;;;14.45;12.95;;;25.50;58.20;;;;;;4998776;28;20065;-66
2021/06/09 11:02:22;;;;;;;13.93;12.43;;;25.50;58.00;;;;;;4995998;28;20109;-66
2021/06/09 11:04:50;;;;;;;14.35;12.90;;;25.40;58.10;;;;;;4996679;28;20141;-66
2021/06/09 11:07:31;;;;;;;14.77;12.95;;;25.20;58.30;;;;;;4995974;28;20029;-66
2021/06/09 11:10:03;;;;;;;13.25;11.95;;;25.10;58.10;;;;;;4998741;28;20030;-66
2021/06/09 11:12:30;;;;;;;12.73;11.52;;;25.00;58.30;;;;;;4997636;28;20108;-66
2021/06/09 11:14:57;;;;;;;14.20;12.60;;;24.80;59.40;;;;;;4996366;28;20038;-66
2021/06/09 11:17:38;;;;;;;13.95;12.45;;;24.70;59.20;;;;;;4993685;28;20069;-66
2021/06/09 11:20:33;;;;;;;13.75;12.35;;;24.60;59.00;;;;;;4997545;28;20022;-66
2021/06/09 11:22:59;;;;;;;13.65;12.35;;;24.50;59.50;;;;;;4999177;28;20121;-66
2021/06/09 11:25:30;;;;;;;13.30;12.05;;;24.40;59.70;;;;;;4997215;28;20070;-66
2021/06/09 11:28:04;;;;;;;12.52;11.32;;;24.30;60.60;;;;;;4998443;28;20042;-66
2021/06/09 11:30:29;;;;;;;12.93;11.63;;;24.20;60.60;;;;;;5003728;28;20045;-66
2021/06/09 11:33:01;;;;;;;13.50;11.90;;;24.10;61.00;;;;;;4997246;28;20423;-66
2021/06/09 11:35:47;;;;;;;13.35;12.05;;;24.00;61.30;;;;;;4995575;28;20037;-66
2021/06/09 11:38:12;;;;;;;13.30;11.98;;;24.00;61.70;;;;;;4998788;28;20188;-66
2021/06/09 11:41:02;;;;;;;14.32;12.93;;;23.90;62.20;;;;;;4996520;28;20146;-66
2021/06/09 11:43:29;;;;;;;13.63;12.23;;;23.80;62.00;;;;;;4996703;28;20030;-66
2021/06/09 11:46:04;;;;;;;13.55;12.10;;;23.80;62.40;;;;;;4996969;28;20112;-66
2021/06/09 11:48:31;;;;;;;12.93;11.35;;;23.80;62.90;;;;;;4996906;28;20030;-66
2021/06/09 11:51:17;;;;;;;13.23;11.95;;;23.80;62.70;;;;;;4996105;28;20092;-66
2021/06/09 11:53:50;;;;;;;13.32;11.60;;;23.80;62.50;;;;;;4995842;28;20037;-66
2021/06/09 11:56:19;;;;;;;12.50;11.27;;;23.80;62.80;;;;;;4998260;28;20041;-66
2021/06/09 11:58:50;;;;;;;12.38;11.05;;;23.80;63.10;;;;;;4996777;28;20042;-66
2021/06/09 12:01:20;;;;;;;12.48;10.80;;;23.70;63.80;;;;;;4996174;28;20034;-66
2021/06/09 12:04:06;;;;;;;13.10;11.30;;;23.70;64.10;;;;;;4998048;28;20088;-66
2021/06/09 12:06:40;;;;;;;11.98;10.77;;;23.80;63.70;;;;;;4997019;28;20126;-66
2021/06/09 12:09:06;;;;;;;12.77;11.55;;;23.70;63.90;;;;;;4997927;28;20030;-66
2021/06/09 12:11:37;;;;;;;15.00;12.30;;;23.80;63.70;;;;;;4995877;28;20060;-68
2021/06/09 12:14:18;;;;;;;13.57;12.02;;;23.80;63.40;;;;;;4996591;28;20042;-68
2021/06/09 12:16:44;;;;;;;11.63;10.50;;;23.80;63.40;;;;;;4994491;28;20045;-68
2021/06/09 12:19:32;;;;;;;11.65;10.55;;;23.80;63.60;;;;;;5002949;28;20034;-68
2021/06/09 12:22:03;;;;;;;13.20;11.07;;;23.80;64.00;;;;;;4997575;28;20413;-68
2021/06/09 12:24:29;;;;;;;12.02;10.93;;;23.80;64.10;;;;;;4996754;28;20560;-68
2021/06/09 12:27:07;;;;;;;14.23;12.43;;;23.80;64.30;;;;;;4994525;28;20049;-68
2021/06/09 12:29:35;;;;;;;13.68;11.50;;;23.90;64.30;;;;;;4995678;28;20440;-68
2021/06/09 12:32:24;;;;;;;10.70;9.73;;;23.80;64.20;;;;;;4994799;28;20061;-68
2021/06/09 12:34:56;;;;;;;10.77;9.88;;;23.80;65.10;;;;;;4996308;28;20041;-68
2021/06/09 12:37:22;;;;;;;13.15;9.50;;;23.80;64.90;;;;;;4996422;28;20042;-68
2021/06/09 12:40:05;;;;;;;12.05;10.95;;;23.80;65.30;;;;;;4995224;28;20029;-68
2021/06/09 12:42:31;;;;;;;13.60;11.18;;;23.80;65.20;;;;;;4993619;28;20607;-68
2021/06/09 12:44:58;;;;;;;11.88;10.80;;;23.80;65.40;;;;;;4993946;28;20089;-68